Time;durP1;ratioP1;P1;durP2;ratioP2;P2;SDS_P1;SDS_P2;PMS_P1;PMS_P2;Temp;Humidity;BMP_temperature;BMP_pressure;BME280_temperature;BME280_humidity;BME280_pressure;Samples;Min_cycle;Max_cycle;Signal;HPM_P1;HPM_P2
2022/12/07 00:01:07;;;;;;;27.70;14.83;;;7.90;99.90;;;7.82;70.43;94953.22;5075678;28;20865;-54
2022/12/07 00:03:34;;;;;;;27.80;14.80;;;7.90;99.90;;;7.84;71.01;94946.06;5077149;28;20847;-55
2022/12/07 00:06:02;;;;;;;35.97;15.53;;;7.90;99.90;;;7.86;71.29;94949.38;5078441;28;21134;-55
2022/12/07 00:08:29;;;;;;;35.93;14.83;;;7.90;99.90;;;7.88;70.59;94947.50;5080218;28;20454;-56
2022/12/07 00:10:56;;;;;;;31.47;14.87;;;8.00;99.90;;;7.88;70.77;94946.66;5078952;28;20494;-54
2022/12/07 00:13:24;;;;;;;28.67;14.60;;;8.00;99.90;;;7.85;70.26;94952.97;5083354;28;20447;-59
2022/12/07 00:15:52;;;;;;;24.30;13.50;;;8.00;99.90;;;7.82;70.52;94950.59;5083839;28;20501;-55
2022/12/07 00:18:19;;;;;;;31.80;14.77;;;7.90;99.90;;;7.84;70.76;94951.31;5080047;28;20463;-56
2022/12/07 00:20:47;;;;;;;29.90;14.90;;;7.90;99.90;;;7.86;71.05;94954.63;5080523;28;20478;-55
2022/12/07 00:23:14;;;;;;;30.63;15.33;;;7.90;99.90;;;7.88;70.96;94952.75;5079544;28;20487;-55
2022/12/07 00:25:41;;;;;;;28.63;15.63;;;8.00;99.90;;;7.90;71.28;94961.28;5086225;28;20470;-55
2022/12/07 00:28:10;;;;;;;28.13;14.57;;;8.00;99.90;;;7.92;71.59;94953.31;5077438;28;20451;-55
2022/12/07 00:30:37;;;;;;;28.80;15.63;;;8.00;99.90;;;7.94;71.25;94956.63;5080829;28;20884;-55
2022/12/07 00:33:06;;;;;;;28.80;15.13;;;8.00;99.90;;;7.96;70.81;94961.75;5085128;28;20484;-55
2022/12/07 00:35:33;;;;;;;32.93;17.10;;;8.10;99.90;;;7.98;70.81;94962.44;5083662;28;20473;-55
2022/12/07 00:38:01;;;;;;;30.83;16.00;;;8.10;99.90;;;7.98;71.40;94963.31;5083588;28;20459;-54
2022/12/07 00:40:28;;;;;;;27.77;15.10;;;8.10;99.90;;;8.00;71.17;94955.31;5080282;28;20473;-53
2022/12/07 00:42:55;;;;;;;31.93;15.03;;;8.10;99.90;;;8.00;71.18;94950.91;5083252;28;21058;-55
2022/12/07 00:45:22;;;;;;;31.37;16.80;;;8.10;99.90;;;8.01;71.37;94951.72;5080988;28;20942;-56
2022/12/07 00:47:50;;;;;;;33.17;15.90;;;8.10;99.90;;;8.02;71.21;94956.03;5079335;28;20469;-55
2022/12/07 00:50:18;;;;;;;33.73;16.23;;;8.10;99.90;;;8.02;70.79;94948.16;5076266;28;20496;-56
2022/12/07 00:52:45;;;;;;;28.83;16.27;;;8.10;99.90;;;8.04;71.25;94948.88;5078734;28;20453;-56
2022/12/07 00:55:13;;;;;;;32.30;15.53;;;8.10;99.90;;;8.04;70.49;94946.25;5076734;28;20467;-54
2022/12/07 00:57:40;;;;;;;29.50;15.30;;;8.10;99.90;;;8.01;71.08;94951.72;5083434;28;20473;-56
2022/12/07 01:00:09;;;;;;;28.90;15.77;;;8.10;99.90;;;8.02;70.49;94948.16;5084317;28;21021;-56
2022/12/07 01:02:36;;;;;;;33.27;18.20;;;8.10;99.90;;;8.00;70.83;94948.28;5077015;28;20533;-55
2022/12/07 01:05:04;;;;;;;30.33;15.90;;;8.10;99.90;;;8.02;71.46;94948.16;5076573;28;20797;-55
2022/12/07 01:07:32;;;;;;;32.70;17.30;;;8.10;99.90;;;8.04;71.06;94951.50;5075384;28;20941;-55
2022/12/07 01:10:00;;;;;;;32.03;16.10;;;8.10;99.90;;;8.05;71.45;94947.94;5080679;28;20471;-56
2022/12/07 01:12:27;;;;;;;36.23;16.60;;;8.10;99.90;;;8.06;71.28;94944.38;5075303;28;20498;-56
2022/12/07 01:14:54;;;;;;;39.00;18.00;;;8.10;99.90;;;8.06;71.06;94933.88;5083244;28;20482;-54
2022/12/07 01:17:21;;;;;;;36.87;17.73;;;8.20;99.90;;;8.07;71.44;94935.53;5073357;28;20463;-57
2022/12/07 01:19:49;;;;;;;33.97;16.50;;;8.20;99.90;;;8.08;71.49;94943.25;5081104;28;20478;-55
2022/12/07 01:22:16;;;;;;;36.27;18.80;;;8.20;99.90;;;8.10;71.62;94937.91;5080613;28;20446;-59
2022/12/07 01:24:46;;;;;;;26.67;15.50;;;8.20;99.90;;;8.10;71.10;94929.22;5078385;28;20489;-57
2022/12/07 01:27:13;;;;;;;36.50;16.60;;;8.20;99.90;;;8.09;71.62;94928.41;5076061;28;20841;-55
2022/12/07 01:29:41;;;;;;;29.13;16.50;;;8.20;99.90;;;8.08;71.39;94932.78;5081827;28;20566;-54
2022/12/07 01:32:08;;;;;;;30.07;16.53;;;8.20;99.90;;;8.08;71.62;94921.50;5075337;28;20461;-56
2022/12/07 01:34:35;;;;;;;31.27;16.07;;;8.10;99.90;;;8.09;71.54;94928.41;5080186;28;20539;-55
2022/12/07 01:37:02;;;;;;;31.73;16.80;;;8.20;99.90;;;8.10;71.48;94932.66;5079302;28;20951;-56
2022/12/07 01:39:30;;;;;;;28.27;16.40;;;8.20;99.90;;;8.08;71.80;94932.78;5077591;28;20896;-54
2022/12/07 01:41:58;;;;;;;31.03;17.00;;;8.20;99.90;;;8.09;71.23;94928.41;5076213;28;20945;-56
2022/12/07 01:44:26;;;;;;;26.90;15.27;;;8.20;99.90;;;8.08;71.06;94926.72;5080650;28;20865;-55
2022/12/07 01:46:55;;;;;;;27.30;16.47;;;8.20;99.90;;;8.05;71.35;94933.03;5083199;28;20457;-55
2022/12/07 01:49:29;;;;;;;31.40;17.10;;;8.10;99.90;;;8.04;71.44;94920.91;5077809;28;20474;-57
2022/12/07 01:52:02;;;;;;;26.00;15.33;;;8.10;99.90;;;8.03;71.47;94918.41;5073313;28;20457;-54
2022/12/07 01:54:29;;;;;;;22.50;15.90;;;8.10;99.90;;;8.01;71.08;94920.31;5074974;28;20995;-55
2022/12/07 01:56:58;;;;;;;28.67;15.57;;;8.10;99.90;;;8.00;71.87;94916.88;5078273;28;21070;-55
2022/12/07 01:59:26;;;;;;;32.63;16.67;;;8.10;99.90;;;7.98;71.57;94917.94;5074681;28;20652;-56
2022/12/07 02:01:54;;;;;;;34.03;16.20;;;8.10;99.90;;;7.98;71.35;94923.16;5078020;28;20457;-56
2022/12/07 02:04:22;;;;;;;25.93;16.17;;;8.00;99.90;;;7.97;71.88;94914.50;5080431;28;20505;-55
2022/12/07 02:06:49;;;;;;;33.00;16.80;;;8.10;99.90;;;7.99;71.72;94914.38;5084791;28;20852;-55
2022/12/07 02:09:16;;;;;;;33.27;16.33;;;8.10;99.90;;;8.00;71.44;94910.81;5079472;28;20481;-57
2022/12/07 02:11:44;;;;;;;31.40;17.13;;;8.10;99.90;;;8.01;71.78;94909.81;5079907;28;20458;-54
2022/12/07 02:14:12;;;;;;;30.90;16.67;;;8.10;99.90;;;8.02;71.94;94909.72;5078963;28;20489;-55
2022/12/07 02:16:48;;;;;;;27.90;16.23;;;8.10;99.90;;;8.04;71.31;94910.44;5080425;28;20486;-55
2022/12/07 02:19:47;;;;;;;32.30;15.83;;;8.10;99.90;;;8.05;71.58;94911.25;5081626;28;20486;-56
2022/12/07 02:22:28;;;;;;;28.73;14.87;;;8.10;99.90;;;8.05;72.11;94906.00;5078193;28;20499;-54
2022/12/07 02:24:56;;;;;;;36.17;16.60;;;8.10;99.90;;;8.05;71.74;94912.06;5078232;28;20482;-54
2022/12/07 02:27:38;;;;;;;31.47;17.57;;;8.10;99.90;;;8.04;71.01;94904.34;5074424;28;20458;-56
2022/12/07 02:30:08;;;;;;;28.83;16.27;;;8.10;99.90;;;8.03;71.48;94902.69;5071724;28;20491;-55
2022/12/07 02:32:45;;;;;;;30.23;17.47;;;8.10;99.90;;;8.01;71.42;94896.72;5074369;28;20994;-55
2022/12/07 02:35:16;;;;;;;30.63;17.53;;;8.10;99.90;;;8.00;71.44;94895.09;5076103;28;20494;-57
2022/12/07 02:37:48;;;;;;;28.73;15.93;;;8.10;99.90;;;7.96;71.41;94891.03;5077387;28;20446;-54
2022/12/07 02:40:23;;;;;;;26.67;15.27;;;8.10;99.90;;;7.97;71.45;94898.78;5081218;28;20474;-55
2022/12/07 02:42:54;;;;;;;30.47;16.77;;;8.10;99.90;;;7.94;71.48;94898.19;5079217;28;20482;-57
2022/12/07 02:45:23;;;;;;;28.47;17.17;;;8.00;99.90;;;7.93;71.79;94901.75;5078545;28;20492;-55
2022/12/07 02:47:52;;;;;;;31.80;16.73;;;8.00;99.90;;;7.89;71.07;94896.78;5078864;28;20461;-57
2022/12/07 02:50:20;;;;;;;29.93;15.93;;;8.00;99.90;;;7.86;71.61;94897.00;5077224;28;20569;-56
2022/12/07 02:52:48;;;;;;;28.37;16.30;;;8.00;99.90;;;7.83;71.35;94891.19;5082861;28;21015;-56
2022/12/07 02:55:16;;;;;;;32.53;17.17;;;7.90;99.90;;;7.79;71.54;94885.38;5076277;28;20478;-53
2022/12/07 02:57:56;;;;;;;35.67;17.93;;;7.90;99.90;;;7.77;71.25;94886.47;5077744;28;20838;-57
2022/12/07 03:00:24;;;;;;;28.33;16.87;;;7.90;99.90;;;7.74;71.34;94876.22;5078762;28;20475;-56
2022/12/07 03:02:55;;;;;;;32.73;18.37;;;7.80;99.90;;;7.70;71.93;94873.03;5081299;28;20536;-54
2022/12/07 03:05:40;;;;;;;29.83;15.67;;;7.80;99.90;;;7.67;71.58;94876.72;5072204;28;20573;-56
2022/12/07 03:08:12;;;;;;;29.30;15.27;;;7.80;99.90;;;7.66;71.82;94874.22;5080967;28;20461;-55
2022/12/07 03:10:44;;;;;;;31.47;16.07;;;7.80;99.90;;;7.62;72.02;94878.88;5077370;28;20478;-56
2022/12/07 03:13:13;;;;;;;29.53;15.87;;;7.70;99.90;;;7.62;71.63;94872.78;5076845;28;21045;-55
2022/12/07 03:15:46;;;;;;;33.07;17.60;;;7.70;99.90;;;7.60;71.57;94869.47;5074080;28;20912;-56
2022/12/07 03:18:14;;;;;;;33.43;17.33;;;7.70;99.90;;;7.58;71.96;94874.00;5080604;28;20448;-53
2022/12/07 03:20:41;;;;;;;86.87;34.70;;;7.70;99.90;;;7.59;71.81;94875.66;5074634;28;20586;-54
2022/12/07 03:23:09;;;;;;;324.63;109.03;;;7.70;99.90;;;7.57;71.58;94880.19;5084898;28;20490;-55
2022/12/07 03:25:36;;;;;;;99.57;39.30;;;7.70;99.90;;;7.56;71.70;94879.34;5082735;28;21048;-56
2022/12/07 03:28:06;;;;;;;48.13;21.87;;;7.70;99.90;;;7.55;71.71;94882.91;5080160;28;20460;-56
2022/12/07 03:30:35;;;;;;;35.93;19.57;;;7.70;99.90;;;7.54;71.58;94878.63;5075879;28;20947;-56
2022/12/07 03:33:07;;;;;;;35.33;19.13;;;7.60;99.90;;;7.51;72.28;94877.09;5074566;28;20463;-56
2022/12/07 03:35:36;;;;;;;35.13;17.83;;;7.60;99.90;;;7.53;71.92;94879.59;5079842;28;20478;-55
2022/12/07 03:38:07;;;;;;;38.40;17.47;;;7.60;99.90;;;7.52;72.08;94877.94;5076608;28;20455;-57
2022/12/07 03:40:38;;;;;;;33.43;17.70;;;7.60;99.90;;;7.52;72.26;94883.97;5072938;28;20981;-55
2022/12/07 03:43:05;;;;;;;31.90;17.67;;;7.60;99.90;;;7.53;72.07;94884.84;5084075;28;21008;-55
2022/12/07 03:45:37;;;;;;;28.63;15.47;;;7.60;99.90;;;7.52;72.62;94883.16;5077544;28;20468;-56
2022/12/07 03:48:09;;;;;;;28.40;15.50;;;7.60;99.90;;;7.52;72.54;94883.97;5077381;28;20445;-56
2022/12/07 03:50:42;;;;;;;32.27;16.80;;;7.60;99.90;;;7.51;71.73;94879.72;5077762;28;20466;-57
2022/12/07 03:53:13;;;;;;;38.47;16.60;;;7.60;99.90;;;7.51;72.13;94877.09;5076740;28;20913;-54
2022/12/07 03:55:42;;;;;;;28.43;17.27;;;7.60;99.90;;;7.52;72.18;94870.06;5076017;28;21083;-54
2022/12/07 03:58:12;;;;;;;27.93;15.77;;;7.60;99.90;;;7.52;72.14;94877.94;5079161;28;20491;-56
2022/12/07 04:00:39;;;;;;;33.10;16.80;;;7.60;99.90;;;7.52;71.87;94875.31;5076277;28;21009;-55
2022/12/07 04:03:08;;;;;;;34.97;17.30;;;7.60;99.90;;;7.51;71.97;94869.25;5074889;28;20993;-55
2022/12/07 04:05:35;;;;;;;28.50;16.50;;;7.60;99.90;;;7.51;71.92;94865.78;5079734;28;20968;-58
2022/12/07 04:08:02;;;;;;;40.93;17.60;;;7.60;99.90;;;7.48;71.98;94872.13;5081500;28;20988;-55
2022/12/07 04:10:29;;;;;;;31.30;17.37;;;7.60;99.90;;;7.48;72.48;94868.66;5081220;28;20892;-57
2022/12/07 04:12:57;;;;;;;28.73;16.60;;;7.60;99.90;;;7.46;72.35;94865.31;5076170;28;20463;-53
2022/12/07 04:15:24;;;;;;;37.10;18.00;;;7.60;99.90;;;7.47;72.16;94867.00;5074514;28;20554;-55
2022/12/07 04:17:51;;;;;;;29.70;16.77;;;7.60;99.90;;;7.47;72.07;94864.38;5076149;28;20520;-55
2022/12/07 04:20:20;;;;;;;26.10;17.17;;;7.60;99.90;;;7.43;72.20;94861.16;5077087;28;20565;-53
2022/12/07 04:22:47;;;;;;;25.87;15.33;;;7.60;99.90;;;7.46;71.75;94868.75;5074350;28;21020;-57
2022/12/07 04:25:15;;;;;;;32.40;16.30;;;7.60;99.90;;;7.46;72.74;94874.00;5077766;28;20871;-54
2022/12/07 04:27:42;;;;;;;33.60;16.57;;;7.60;99.90;;;7.45;71.91;94877.59;5081275;28;20453;-56
2022/12/07 04:30:10;;;;;;;32.67;17.20;;;7.60;99.90;;;7.46;72.45;94874.00;5076364;28;21045;-55
2022/12/07 04:32:37;;;;;;;25.13;14.70;;;7.60;99.90;;;7.45;72.32;94872.34;5075646;28;20542;-55
2022/12/07 04:35:05;;;;;;;28.23;15.60;;;7.60;99.90;;;7.45;72.31;94871.50;5078798;28;20474;-53
2022/12/07 04:37:34;;;;;;;28.40;16.03;;;7.60;99.90;;;7.44;72.02;94864.63;5078421;28;20454;-56
2022/12/07 04:40:01;;;;;;;30.40;16.13;;;7.50;99.90;;;7.43;71.79;94866.38;5082305;28;20523;-54
2022/12/07 04:42:28;;;;;;;31.80;15.87;;;7.50;99.90;;;7.42;71.93;94867.34;5076002;28;20469;-54
2022/12/07 04:44:56;;;;;;;31.30;16.17;;;7.50;99.90;;;7.42;72.73;94863.88;5076503;28;20493;-56
2022/12/07 04:47:23;;;;;;;31.57;16.30;;;7.50;99.90;;;7.41;72.24;94872.72;5077983;28;20458;-56
2022/12/07 04:49:50;;;;;;;29.10;16.30;;;7.50;99.90;;;7.39;72.38;94880.69;5073566;28;21916;-55
2022/12/07 04:52:17;;;;;;;27.60;16.23;;;7.50;99.90;;;7.39;72.38;94875.44;5082677;28;20445;-57
2022/12/07 04:54:46;;;;;;;31.27;17.13;;;7.50;99.90;;;7.38;71.89;94886.84;5077641;28;20481;-56
2022/12/07 04:57:13;;;;;;;26.33;15.97;;;7.50;99.90;;;7.40;72.14;94881.50;5076186;28;20496;-55
2022/12/07 04:59:41;;;;;;;27.67;16.27;;;7.50;99.90;;;7.38;72.27;94876.38;5083147;28;20473;-55
2022/12/07 05:02:08;;;;;;;43.07;16.70;;;7.50;99.90;;;7.37;71.95;94879.94;5078997;28;20987;-53
2022/12/07 05:04:35;;;;;;;35.63;17.30;;;7.50;99.90;;;7.35;72.01;94879.25;5082730;28;20497;-54
2022/12/07 05:07:02;;;;;;;30.90;16.80;;;7.50;99.90;;;7.33;72.28;94878.53;5079738;28;20457;-55
2022/12/07 05:09:29;;;;;;;32.13;16.93;;;7.50;99.90;;;7.30;72.26;94878.78;5081643;28;20796;-56
2022/12/07 05:11:58;;;;;;;28.80;16.37;;;7.40;99.90;;;7.27;72.41;94874.63;5081999;28;20454;-58
2022/12/07 05:14:25;;;;;;;26.20;14.97;;;7.40;99.90;;;7.26;72.51;94862.47;5084444;28;20504;-57
2022/12/07 05:16:53;;;;;;;31.80;15.57;;;7.40;99.90;;;7.25;71.92;94871.28;5083953;28;20514;-56
2022/12/07 05:19:20;;;;;;;31.27;18.43;;;7.40;99.90;;;7.22;72.32;94884.63;5083306;28;20476;-55
2022/12/07 05:21:48;;;;;;;28.60;16.80;;;7.30;99.90;;;7.21;72.71;94882.13;5082337;28;20511;-56
2022/12/07 05:24:15;;;;;;;27.40;16.00;;;7.30;99.90;;;7.21;72.40;94887.34;5078924;28;20493;-56
2022/12/07 05:26:43;;;;;;;29.27;16.13;;;7.30;99.90;;;7.21;72.80;94884.72;5079037;28;20450;-55
2022/12/07 05:29:13;;;;;;;33.40;17.00;;;7.30;99.90;;;7.20;72.02;94877.81;5082637;28;20485;-55
2022/12/07 05:31:40;;;;;;;30.53;18.00;;;7.30;99.90;;;7.18;72.23;94880.56;5078500;28;20461;-54
2022/12/07 05:34:07;;;;;;;37.33;18.73;;;7.30;99.90;;;7.18;72.35;94885.78;5078532;28;20477;-56
2022/12/07 05:36:35;;;;;;;38.93;19.33;;;7.30;99.90;;;7.20;72.74;94878.66;5078807;28;20937;-55
2022/12/07 05:39:02;;;;;;;28.20;16.33;;;7.30;99.90;;;7.21;72.39;94879.50;5083131;28;20482;-56
2022/12/07 05:44:15;;;;;;;29.10;16.20;;;7.30;99.90;;;7.22;72.44;94865.44;5077379;28;20488;-55
2022/12/07 05:46:42;;;;;;;30.90;17.20;;;7.30;99.90;;;7.21;72.27;94869.03;5079620;28;20457;-54
2022/12/07 05:49:09;;;;;;;31.03;17.93;;;7.30;99.90;;;7.21;72.77;94874.28;5083494;28;20892;-56
2022/12/07 05:51:37;;;;;;;34.53;17.50;;;7.30;99.90;;;7.20;72.53;94862.13;5077627;28;20527;-57
2022/12/07 05:54:04;;;;;;;33.77;19.30;;;7.30;99.90;;;7.18;73.11;94870.09;5079225;28;20473;-57
2022/12/07 05:56:31;;;;;;;40.03;18.87;;;7.30;99.90;;;7.17;73.05;94869.28;5078579;28;20906;-57
2022/12/07 06:01:45;;;;;;;37.57;18.90;;;7.30;99.90;;;7.20;72.23;94862.94;5077056;28;20485;-57
2022/12/07 06:04:12;;;;;;;36.50;18.80;;;7.30;99.90;;;7.22;72.70;94861.06;5076288;28;20501;-58
2022/12/07 06:06:39;;;;;;;37.73;19.73;;;7.30;99.90;;;7.24;72.53;94864.38;5077191;28;20459;-54
2022/12/07 06:09:06;;;;;;;35.53;19.03;;;7.30;99.90;;;7.26;72.54;94867.72;5077544;28;21013;-55
2022/12/07 06:14:18;;;;;;;38.00;18.93;;;7.40;99.90;;;7.30;72.92;94869.16;5073555;28;20536;-56
2022/12/07 06:16:47;;;;;;;44.80;20.90;;;7.40;99.90;;;7.32;72.30;94863.78;5074932;28;20451;-57
2022/12/07 06:19:14;;;;;;;43.17;22.77;;;7.40;99.90;;;7.34;72.53;94870.56;5077595;28;20466;-53
2022/12/07 06:21:41;;;;;;;37.27;21.10;;;7.40;99.90;;;7.38;72.09;94871.16;5076539;28;20455;-57
2022/12/07 06:24:10;;;;;;;36.53;21.17;;;7.50;99.90;;;7.41;72.84;94875.34;5081652;28;20494;-56
2022/12/07 06:26:37;;;;;;;40.87;21.93;;;7.50;99.90;;;7.43;72.82;94874.25;5077928;28;20947;-54
2022/12/07 06:29:04;;;;;;;53.40;23.30;;;7.50;99.90;;;7.46;72.03;94874.00;5073206;28;20998;-55
2022/12/07 06:31:31;;;;;;;38.47;21.07;;;7.60;99.90;;;7.49;72.57;94881.59;5079295;28;20755;-54
2022/12/07 06:34:01;;;;;;;36.10;20.77;;;7.60;99.90;;;7.51;72.18;94884.97;5072583;28;20454;-55
2022/12/07 06:36:28;;;;;;;37.37;20.50;;;7.60;99.90;;;7.53;72.09;94890.88;5074660;28;20461;-55
2022/12/07 06:38:55;;;;;;;39.47;18.80;;;7.70;99.90;;;7.56;71.92;94886.34;5077587;28;20947;-55
2022/12/07 06:41:23;;;;;;;40.87;20.20;;;7.60;99.90;;;7.58;72.09;94887.09;5080985;28;20462;-55
2022/12/07 06:43:50;;;;;;;36.93;19.90;;;7.70;99.90;;;7.56;71.54;94886.34;5077816;28;20443;-56
2022/12/07 06:46:17;;;;;;;37.83;18.90;;;7.70;99.90;;;7.56;72.18;94894.22;5082162;28;20994;-55
2022/12/07 06:48:44;;;;;;;31.83;18.90;;;7.70;99.90;;;7.57;71.95;94895.88;5072655;28;20454;-56
2022/12/07 06:51:13;;;;;;;38.87;18.87;;;7.70;99.90;;;7.58;71.81;94897.56;5079018;28;20450;-54
2022/12/07 06:53:40;;;;;;;40.97;20.70;;;7.70;99.90;;;7.58;71.98;94893.16;5084718;28;20438;-55
2022/12/07 06:56:08;;;;;;;52.20;21.00;;;7.70;99.90;;;7.58;72.04;94893.16;5079739;28;21031;-57
2022/12/07 06:58:35;;;;;;;41.53;19.77;;;7.70;99.90;;;7.62;72.08;94893.72;5078699;28;20454;-55
2022/12/07 07:01:02;;;;;;;30.33;18.37;;;7.70;99.90;;;7.67;72.42;94889.81;5080143;28;20508;-56
2022/12/07 07:03:30;;;;;;;38.97;18.90;;;7.80;99.90;;;7.74;72.48;94894.56;5077983;28;20454;-56
2022/12/07 07:05:57;;;;;;;38.17;19.40;;;7.80;99.90;;;7.81;73.68;94896.56;5080532;28;20490;-55
2022/12/07 07:08:26;;;;;;;33.40;20.53;;;7.90;99.90;;;7.90;72.54;94902.84;5079282;28;20442;-56
2022/12/07 07:10:53;;;;;;;38.03;18.40;;;7.90;99.90;;;7.96;71.77;94898.91;5080533;28;20489;-56
2022/12/07 07:13:20;;;;;;;46.97;20.33;;;8.00;99.90;;;8.00;71.98;94900.31;5081163;28;20822;-56
2022/12/07 07:15:47;;;;;;;40.23;21.10;;;8.00;99.90;;;8.02;71.76;94903.66;5080090;28;20956;-56
2022/12/07 07:18:15;;;;;;;37.50;20.00;;;8.10;99.90;;;8.03;71.64;94902.69;5079572;28;20462;-55
2022/12/07 07:20:42;;;;;;;39.03;19.23;;;8.10;99.90;;;8.05;71.37;94904.22;5079727;28;20474;-56
2022/12/07 07:23:09;;;;;;;35.47;21.53;;;8.10;99.90;;;8.05;71.19;94895.53;5079042;28;20457;-57
2022/12/07 07:25:38;;;;;;;36.10;19.80;;;8.10;99.90;;;8.07;70.78;94907.56;5080631;28;20500;-59
2022/12/07 07:28:05;;;;;;;41.80;20.77;;;8.20;99.90;;;8.10;71.33;94898.59;5081922;28;20458;-56
2022/12/07 07:30:32;;;;;;;35.83;19.90;;;8.20;99.90;;;8.15;71.48;94896.47;5080494;28;20481;-58
2022/12/07 07:33:00;;;;;;;38.70;20.90;;;8.20;99.90;;;8.24;71.60;94906.22;5076343;28;20465;-56
2022/12/07 07:35:27;;;;;;;36.90;19.07;;;8.30;99.90;;;8.42;71.39;94903.84;5080431;28;20486;-56
2022/12/07 07:37:54;;;;;;;36.30;20.70;;;8.50;99.90;;;8.70;70.92;94900.78;5078483;28;20451;-55
2022/12/07 07:40:22;;;;;;;34.03;19.63;;;8.70;99.90;;;9.03;69.80;94899.75;5080670;28;20477;-56
2022/12/07 07:42:50;;;;;;;46.90;19.07;;;9.00;99.90;;;9.39;69.39;94901.97;5078258;28;20477;-56
2022/12/07 07:45:18;;;;;;;37.87;18.90;;;9.30;99.90;;;9.82;68.77;94895.63;5080271;28;20871;-55
2022/12/07 07:47:46;;;;;;;31.43;18.47;;;9.70;99.90;;;10.28;67.10;94888.94;5077674;28;20450;-55
2022/12/07 07:50:13;;;;;;;39.17;23.70;;;10.10;99.90;;;10.61;66.51;94897.41;5075888;28;20490;-56
2022/12/07 07:52:40;;;;;;;37.97;19.93;;;10.50;99.90;;;10.80;66.05;94887.81;5079368;28;20797;-53
2022/12/07 07:55:08;;;;;;;40.27;21.40;;;10.70;99.90;;;10.87;65.24;94886.31;5081067;28;20524;-57
2022/12/07 07:57:35;;;;;;;38.47;20.67;;;10.80;99.90;;;10.91;64.76;94890.31;5071893;28;20454;-55
2022/12/07 08:00:06;;;;;;;36.70;21.83;;;10.90;99.90;;;10.87;64.82;94894.19;5081401;28;20478;-56
2022/12/07 08:02:33;;;;;;;42.33;22.47;;;10.90;99.90;;;10.79;64.29;94888.81;5077358;28;20557;-56
2022/12/07 08:05:00;;;;;;;38.23;22.27;;;10.80;99.90;;;10.67;64.86;94888.94;5080570;28;20501;-56
2022/12/07 08:07:28;;;;;;;44.37;25.50;;;10.70;99.90;;;10.52;64.85;94895.63;5077837;28;20835;-57
2022/12/07 08:09:56;;;;;;;43.37;22.63;;;10.60;99.90;;;10.35;64.81;94887.44;5080534;28;20534;-56
2022/12/07 08:12:23;;;;;;;53.53;25.17;;;10.50;99.90;;;10.23;65.21;94896.41;5077814;28;20450;-56
2022/12/07 08:14:50;;;;;;;41.40;21.47;;;10.30;99.90;;;10.18;65.55;94894.19;5077320;28;20705;-54
2022/12/07 08:17:19;;;;;;;40.83;23.77;;;10.20;99.90;;;10.21;65.72;94887.84;5078463;28;20450;-56
2022/12/07 08:19:46;;;;;;;52.37;25.20;;;10.20;99.90;;;10.22;65.59;94885.06;5079461;28;20470;-55
2022/12/07 08:22:13;;;;;;;44.93;24.77;;;10.30;99.90;;;10.42;65.51;94890.34;5078761;28;20883;-56
2022/12/07 08:24:40;;;;;;;44.50;23.43;;;10.40;99.90;;;10.92;65.10;94891.97;5079067;28;20903;-54
2022/12/07 08:27:08;;;;;;;46.07;23.87;;;10.80;99.90;;;11.60;63.90;94889.13;5078367;28;20453;-56
2022/12/07 08:29:35;;;;;;;50.57;23.33;;;11.30;99.90;;;12.15;61.99;94895.38;5079315;28;20542;-57
2022/12/07 08:32:02;;;;;;;54.83;26.23;;;11.80;99.90;;;12.34;61.36;94895.25;5079558;28;20454;-56
2022/12/07 08:34:31;;;;;;;46.50;26.80;;;12.10;99.30;;;12.32;60.96;94881.38;5082294;28;20478;-56
2022/12/07 08:36:58;;;;;;;49.63;26.30;;;12.20;98.60;;;12.32;60.43;94896.38;5083498;28;20490;-55
2022/12/07 08:39:25;;;;;;;41.53;24.10;;;12.30;98.00;;;12.40;60.54;94885.91;5081213;28;20465;-57
2022/12/07 08:41:52;;;;;;;43.60;24.40;;;12.30;98.20;;;12.45;60.35;94886.28;5083128;28;20507;-56
2022/12/07 08:44:20;;;;;;;42.77;22.07;;;12.40;98.30;;;12.63;60.20;94882.81;5082178;28;20842;-58
2022/12/07 08:46:48;;;;;;;44.87;24.40;;;12.50;97.80;;;12.85;59.51;94882.31;5082728;28;20453;-57
2022/12/07 08:49:18;;;;;;;42.33;22.80;;;12.70;97.60;;;13.22;58.74;94873.31;5076390;28;20645;-56
2022/12/07 08:51:47;;;;;;;40.00;23.03;;;13.00;96.80;;;13.45;58.67;94868.38;5084308;28;20457;-57
2022/12/07 08:54:16;;;;;;;44.20;22.87;;;13.20;97.00;;;13.47;57.93;94870.03;5084164;28;21123;-57
2022/12/07 08:56:43;;;;;;;38.37;23.37;;;13.30;96.30;;;13.34;58.40;94863.38;5083801;28;20450;-54
2022/12/07 08:59:10;;;;;;;38.60;24.00;;;13.20;96.10;;;13.14;58.04;94865.38;5076505;28;20873;-57
2022/12/07 09:01:37;;;;;;;48.40;25.87;;;13.10;96.00;;;12.94;57.86;94866.56;5082681;28;20969;-56
2022/12/07 09:04:05;;;;;;;46.27;25.60;;;13.00;95.90;;;12.76;59.08;94853.38;5079046;28;20535;-56
2022/12/07 09:06:32;;;;;;;48.03;25.17;;;12.80;96.20;;;12.63;58.90;94856.44;5079345;28;20508;-57
2022/12/07 09:09:01;;;;;;;58.67;26.67;;;12.70;96.10;;;12.53;59.47;94852.06;5080570;28;20828;-55
2022/12/07 09:11:28;;;;;;;52.20;27.17;;;12.60;96.60;;;12.48;59.47;94854.31;5084100;28;20446;-55
2022/12/07 09:13:56;;;;;;;50.27;29.37;;;12.50;96.40;;;12.46;59.12;94851.00;5080889;28;20480;-56
2022/12/07 09:16:23;;;;;;;61.67;28.30;;;12.50;96.50;;;12.55;59.33;94844.81;5084574;28;20468;-56
2022/12/07 09:18:50;;;;;;;51.50;28.27;;;12.50;96.70;;;12.69;59.34;94847.91;5080435;28;20515;-56
2022/12/07 09:21:17;;;;;;;53.20;29.13;;;12.60;96.60;;;12.75;58.81;94836.72;5076572;28;20455;-56
2022/12/07 09:23:45;;;;;;;51.17;29.10;;;12.60;96.40;;;12.83;58.50;94842.06;5079072;28;20446;-56
2022/12/07 09:26:13;;;;;;;57.23;28.40;;;12.70;96.10;;;12.97;58.74;94839.84;5076382;28;20485;-56
2022/12/07 09:28:41;;;;;;;56.67;27.57;;;12.90;96.20;;;13.12;57.83;94838.28;5079301;28;20449;-57
2022/12/07 09:31:08;;;;;;;46.40;26.33;;;12.90;96.10;;;13.26;57.85;94843.00;5079370;28;21034;-53
2022/12/07 09:33:35;;;;;;;54.23;28.70;;;13.10;95.90;;;13.33;55.64;94831.78;5081435;28;20457;-57
2022/12/07 09:36:03;;;;;;;47.00;27.60;;;13.20;94.20;;;13.21;57.24;94829.41;5079728;28;20467;-56
2022/12/07 09:38:31;;;;;;;56.63;28.63;;;13.10;94.90;;;13.12;57.41;94826.88;5084721;28;20768;-56
2022/12/07 09:40:58;;;;;;;49.47;27.90;;;13.00;94.70;;;12.97;57.61;94824.84;5079679;28;20469;-55
2022/12/07 09:43:27;;;;;;;59.03;28.87;;;12.90;95.00;;;12.77;57.66;94826.84;5080837;28;20447;-57
2022/12/07 09:45:56;;;;;;;53.23;29.10;;;12.80;95.10;;;12.57;58.10;94831.47;5079277;28;21035;-57
2022/12/07 09:48:26;;;;;;;53.67;27.90;;;12.60;95.10;;;12.47;58.52;94826.28;5078706;28;20440;-56
2022/12/07 09:50:54;;;;;;;50.90;27.80;;;12.40;95.70;;;12.49;58.68;94811.13;5079241;28;20527;-54
2022/12/07 09:53:27;;;;;;;62.40;30.43;;;12.40;95.80;;;12.55;59.00;94818.44;5084663;28;20910;-56
2022/12/07 09:55:55;;;;;;;58.30;31.10;;;12.40;96.20;;;12.56;58.99;94819.25;5074404;28;20475;-55
2022/12/07 09:58:26;;;;;;;52.70;29.73;;;12.50;95.70;;;12.63;58.83;94799.19;5080039;28;20466;-55
2022/12/07 10:00:57;;;;;;;69.93;29.07;;;12.50;95.90;;;12.82;58.70;94803.44;5074675;28;20466;-55
2022/12/07 10:03:24;;;;;;;55.53;28.13;;;12.70;96.00;;;13.36;58.40;94805.09;5073911;28;20531;-56
2022/12/07 10:05:52;;;;;;;63.17;29.13;;;13.10;96.20;;;13.96;56.89;94799.66;5075388;28;20500;-54
2022/12/07 10:08:19;;;;;;;70.47;31.00;;;13.50;95.50;;;14.26;56.25;94805.31;5075810;28;20459;-56
2022/12/07 10:10:49;;;;;;;54.10;27.20;;;13.90;94.90;;;14.34;55.03;94789.47;5075159;28;20485;-57
2022/12/07 10:13:20;;;;;;;59.40;31.60;;;14.10;93.80;;;14.56;54.94;94787.13;5075221;28;20447;-57
2022/12/07 10:15:51;;;;;;;58.57;29.23;;;14.30;93.60;;;14.99;53.90;94781.66;5081159;28;20474;-56
2022/12/07 10:18:26;;;;;;;66.83;28.80;;;14.60;93.20;;;15.27;53.35;94774.09;5078864;28;20916;-57
2022/12/07 10:21:13;;;;;;;64.63;27.87;;;14.90;92.40;;;15.39;50.85;94780.69;5074709;28;20573;-56
2022/12/07 10:23:41;;;;;;;62.60;26.47;;;15.10;91.30;;;15.53;52.61;94767.72;5080269;28;20462;-56
2022/12/07 10:26:26;;;;;;;54.83;28.47;;;15.20;91.50;;;15.52;51.97;94760.75;5074437;28;20494;-57
2022/12/07 10:28:53;;;;;;;52.50;28.90;;;15.30;91.00;;;15.25;51.27;94760.22;5079712;28;20466;-56